• Join FlightAware (Why Join?)
  • Login
  • US Flag 
05:53PM EDT


 

Airport Tracker/Info


-or-


 

Live Flight TrackerFlight Track Log ✈ OPT702 ✈ 22-Aug-2013 ✈ KIAH - KSAT

Flight Track Log - Related Links

Times and Time Zones

All times are in EDT time to prevent confusion due to time zone crossing. See the OPT702 flight status page for this flight to view local times or setup timezone preferences in your user account.

Time Position Orientation Groundspeed Altitude Reporting Facility
EDT Latitude Longitude Course Direction KTS MPH feet Rate Location/Type
10:08AM 29.9644 -95.3506 239° Southwest 174 200 1,200  Level Houston Center
10:09AM 29.9483 -95.3814 239° Southwest 229 264 3,100 1,980 Climbing Houston Center
10:10AM 29.9561 -95.4317 280° West 234 269 3,900 1,380 Climbing Houston Center
10:11AM 29.9664 -95.5192 278° West 268 308 5,600 2,340 Climbing Houston Center
10:12AM 29.9728 -95.6167 274° West 302 348 8,800 3,120 Climbing Houston Center
10:13AM 29.9419 -95.7103 249° West 311 358 12,100 3,000 Climbing Houston Center
10:14AM 29.9097 -95.8042 248° West 316 364 15,100 2,820 Climbing Houston Center
10:15AM 29.8708 -95.9183 249° West 320 368 18,000 1,380 Climbing Houston Center
10:16AM 29.8344 -96.0197 248° West 365 420 18,000  Level Houston Center
10:17AM 29.7933 -96.1386 248° West 398 458 18,000  Level Houston Center
10:18AM 29.7856 -96.2789 266° West 379 436 18,000  Level Houston Center
10:19AM 29.7950 -96.3953 275° West 370 426 18,000  Level Houston Center
10:20AM 29.8031 -96.5117 275° West 369 425 18,000  Level Houston Center
10:21AM 29.8119 -96.6281 275° West 368 423 18,000  Level Houston Center
10:22AM 29.8217 -96.7450 276° West 369 425 18,000  Level Houston Center
10:23AM 29.8311 -96.8856 274° West 370 426 18,000 -120 Level Houston Center
10:24AM 29.8394 -97.0022 275° West 368 423 17,800 -720 Descending Houston Center
10:25AM 29.8483 -97.1189 275° West 369 425 16,600 -1,140 Descending Houston Center
10:26AM 29.8558 -97.2328 274° West 361 415 15,500 -1,140 Descending Houston Center
10:27AM 29.8636 -97.3431 275° West 351 404 14,300 -1,260 Descending Houston Center
10:28AM 29.8725 -97.4767 274° West 350 403 13,000 -600 Descending Houston Center
10:29AM 29.8800 -97.5928 274° West 347 399 13,100  Climbing Houston Center
10:30AM 29.8872 -97.7108 274° West 344 396 13,100  Level Houston Center
10:31AM 29.8956 -97.8217 275° West 347 399 13,100  Level Houston Center
10:32AM 29.8914 -97.8722 265° West 348 400 13,100 -780 Level Houston Center
10:32AM 29.8678 -97.9336 246° West 346 398 12,300 -1,740 Descending Houston Center
10:33AM 29.8278 -98.0286 244° Southwest 331 381 10,400 -1,680 Descending Houston Center
10:34AM 29.7917 -98.1142 244° Southwest 301 346 8,800 -1,680 Descending Houston Center
10:36AM 29.7533 -98.2042 244° Southwest 291 335 7,000 -1,320 Descending Houston Center
10:37AM 29.7183 -98.2858 244° Southwest 286 329 6,100 -480 Descending Houston Center
10:38AM 29.6808 -98.3742 244° Southwest 286 329 6,100 -780 Level Houston Center
10:39AM 29.6481 -98.4547 245° Southwest 282 325 4,500 -1,500 Descending Houston Center
10:40AM 29.6867 -98.5367 298° West 273 314 3,100 -780 Descending Houston Center
10:41AM 29.7139 -98.5917 300° West 216 249 3,000  Descending Houston Center
10:42AM 29.6658 -98.6203 207° Southwest 189 217 3,100  Climbing Houston Center
10:43AM 29.6222 -98.5889 148° Southeast 185 213 3,100 -420 Level Houston Center
10:44AM 29.5931 -98.5497 131° Southeast 152 175 2,300 -720 Descending Houston Center
10:45AM 29.5700 -98.5206 132° Southeast 139 160 1,700 -720 Descending Houston Center
10:46AM 29.5425 -98.4831 130° Southeast 140 161 900 -720 Descending Houston Center